Ettelbruck, Luxembourg
Current Conditions -  °F | °C
As of 2:50 AM on Saturday 01 Nov 2014 (Local Time) from ELLX Reporting Station
NA  
Wind Chill: 50°   Ceiling: NA
Heat Index: 50°   Visibility: NA
Dew Point: 50°   Wind: 0mph
Humidity: 100%   Direction: NA
Pressure: 30.21"   Gusts: NA
Location:  49.85°N, 6.1°E
Report Text: ELLX 010150Z AUTO 00000KT //// 10/10 Q1023
Loading
Personal Weather Stations






























Interactive Weather Map
Tropical Storm Tracking
New forecast layout! Learn more

10-Day Weather Forecast

Advertisements
Track Severe Weather on mobile